Time;durP1;ratioP1;P1;durP2;ratioP2;P2;SDS_P1;SDS_P2;PMS_P1;PMS_P2;Temp;Humidity;BMP_temperature;BMP_pressure;BME280_temperature;BME280_humidity;BME280_pressure;Samples;Min_cycle;Max_cycle;Signal;HPM_P1;HPM_P2
2023/06/17 00:00:32;;;;;;;7.60;3.50;;;;;;;20.08;54.13;98655.19;80915;1295;3054664;-59
2023/06/17 00:02:58;;;;;;;7.60;3.30;;;;;;;20.03;54.26;98657.23;82216;1293;3012918;-61
2023/06/17 00:05:25;;;;;;;5.40;3.20;;;;;;;20.02;54.35;98657.63;82177;1293;3011386;-62
2023/06/17 00:07:53;;;;;;;11.80;3.50;;;;;;;20.01;54.42;98647.52;80903;1292;3025999;-61
2023/06/17 00:10:19;;;;;;;5.50;3.60;;;;;;;20.03;54.51;98645.64;82193;1292;3013962;-61
2023/06/17 00:12:48;;;;;;;5.10;3.10;;;;;;;20.00;54.54;98645.29;82171;1292;3011311;-61
2023/06/17 00:15:16;;;;;;;5.00;2.70;;;;;;;20.02;54.13;98644.77;80902;1295;3051864;-61
2023/06/17 00:17:47;;;;;;;6.60;3.40;;;;;;;19.99;54.32;98642.52;82203;1297;3012775;-61
2023/06/17 00:20:15;;;;;;;6.40;3.40;;;;;;;19.93;54.82;98643.71;80950;1292;3050598;-60
2023/06/17 00:22:43;;;;;;;6.30;3.50;;;;;;;19.91;54.44;98639.02;82181;1292;3012984;-61
2023/06/17 00:25:11;;;;;;;10.10;3.60;;;;;;;19.90;54.22;98638.20;82169;1296;3011437;-60
2023/06/17 00:27:39;;;;;;;7.80;3.60;;;;;;;19.91;54.54;98636.29;80914;1293;3049065;-60
2023/06/17 00:30:07;;;;;;;8.60;3.70;;;;;;;19.89;54.67;98634.40;82232;1297;3012648;-61
2023/06/17 00:32:33;;;;;;;5.80;3.50;;;;;;;19.86;54.76;98636.54;82088;1295;3011434;-60
2023/06/17 00:35:05;;;;;;;5.70;3.60;;;;;;;19.82;54.76;98635.97;80885;1292;3051260;-61
2023/06/17 00:37:32;;;;;;;6.20;3.60;;;;;;;19.73;55.18;98634.02;82166;1293;3011283;-59
2023/06/17 00:39:59;;;;;;;7.10;3.30;;;;;;;19.74;55.06;98633.97;80845;1293;3026075;-59
2023/06/17 00:42:26;;;;;;;8.40;3.30;;;;;;;19.73;55.11;98634.73;82126;1295;3012467;-61
2023/06/17 00:44:53;;;;;;;6.60;3.20;;;;;;;19.71;55.09;98635.53;82169;1293;3011117;-59
2023/06/17 00:47:20;;;;;;;8.00;3.40;;;;;;;19.61;55.20;98641.93;80912;1298;3026294;-61
2023/06/17 00:49:48;;;;;;;6.00;3.00;;;;;;;19.59;55.35;98641.84;82228;1296;3012676;-62
2023/06/17 00:52:14;;;;;;;8.20;3.20;;;;;;;19.57;55.28;98641.67;82119;1292;3011370;-62
2023/06/17 00:54:42;;;;;;;12.40;3.60;;;;;;;19.53;55.30;98638.80;80912;1292;3048513;-62
2023/06/17 00:57:13;;;;;;;7.40;3.60;;;;;;;19.49;55.89;98639.20;82105;1293;3018414;-60
2023/06/17 00:59:44;;;;;;;5.70;3.20;;;;;;;19.46;55.25;98641.81;80916;1298;3053033;-60
2023/06/17 01:02:13;;;;;;;9.10;3.40;;;;;;;19.38;55.33;98648.21;82202;1295;3011330;-60
2023/06/17 01:04:46;;;;;;;8.40;3.60;;;;;;;19.33;55.69;98650.02;80953;1292;3068679;-62
2023/06/17 01:07:35;;;;;;;7.20;3.00;;;;;;;19.38;55.91;98646.27;82131;1292;3011149;-59
2023/06/17 01:10:05;;;;;;;13.40;3.50;;;;;;;19.32;55.87;98644.63;80921;1295;3055725;-61
2023/06/17 01:12:32;;;;;;;6.60;3.40;;;;;;;19.29;55.79;98643.58;82000;1293;3011564;-60
2023/06/17 01:15:01;;;;;;;9.80;3.30;;;;;;;19.22;56.04;98641.63;82171;1292;3011228;-62
2023/06/17 01:17:30;;;;;;;5.10;3.40;;;;;;;19.25;55.84;98635.96;80670;1301;3052244;-61
2023/06/17 01:19:56;;;;;;;5.40;3.40;;;;;;;19.17;55.94;98639.94;82102;1298;3012259;-60
2023/06/17 01:22:27;;;;;;;5.10;3.30;;;;;;;19.13;55.90;98638.58;81573;1299;3011421;-60
2023/06/17 01:24:56;;;;;;;12.10;3.60;;;;;;;19.15;55.90;98635.02;82027;1293;3018678;-60
2023/06/17 01:27:23;;;;;;;9.60;3.50;;;;;;;19.11;55.79;98638.89;82016;1292;3011229;-61
2023/06/17 01:29:51;;;;;;;5.60;3.70;;;;;;;19.09;55.60;98639.44;80886;1293;3051867;-60
2023/06/17 01:32:18;;;;;;;5.10;3.40;;;;;;;19.15;55.50;98640.10;82169;1296;3013255;-60
2023/06/17 01:34:55;;;;;;;8.90;3.20;;;;;;;19.10;55.83;98639.33;82175;1296;3011495;-61
2023/06/17 01:37:28;;;;;;;8.30;3.70;;;;;;;19.11;55.59;98642.51;80923;1295;3068046;-61
2023/06/17 01:39:56;;;;;;;7.10;3.90;;;;;;;19.04;55.86;98640.54;82101;1293;3011231;-60
2023/06/17 01:42:28;;;;;;;7.30;3.40;;;;;;;19.09;55.77;98644.06;80881;1293;3056084;-61
2023/06/17 01:44:55;;;;;;;8.10;3.80;;;;;;;19.04;55.94;98643.74;82094;1293;3010896;-61
2023/06/17 01:47:23;;;;;;;5.90;3.80;;;;;;;19.00;55.96;98642.66;80825;1292;3026142;-60
2023/06/17 01:49:49;;;;;;;9.40;4.60;;;;;;;18.95;55.95;98638.95;82192;1295;3013080;-60
2023/06/17 01:52:16;;;;;;;7.40;4.10;;;;;;;18.93;55.97;98640.92;82023;1296;3011415;-61
2023/06/17 01:54:44;;;;;;;6.20;3.80;;;;;;;18.85;56.33;98640.30;80918;1295;3026766;-60
2023/06/17 01:57:11;;;;;;;6.60;4.00;;;;;;;18.81;56.56;98643.95;82251;1294;3018583;-61
2023/06/17 01:59:37;;;;;;;11.80;3.80;;;;;;;18.79;56.72;98645.02;82066;1293;3011277;-61
2023/06/17 02:02:06;;;;;;;12.40;4.30;;;;;;;18.84;56.65;98643.09;80832;1298;3025958;-61
2023/06/17 02:04:32;;;;;;;6.90;3.80;;;;;;;18.82;56.91;98639.05;82188;1295;3012620;-60
2023/06/17 02:06:59;;;;;;;10.80;4.00;;;;;;;18.80;56.70;98639.46;82211;1292;3011082;-60
2023/06/17 02:09:27;;;;;;;7.00;3.50;;;;;;;18.81;56.55;98639.63;80919;1295;3026322;-59
2023/06/17 02:11:53;;;;;;;7.10;3.40;;;;;;;18.76;56.87;98641.41;82130;1293;3012736;-59
2023/06/17 02:14:19;;;;;;;7.70;4.10;;;;;;;18.82;56.80;98639.96;82162;1293;3011096;-60
2023/06/17 02:16:48;;;;;;;13.40;5.20;;;;;;;18.76;57.16;98638.56;80943;1293;3025961;-62
2023/06/17 02:19:15;;;;;;;13.40;5.40;;;;;;;18.78;57.05;98640.29;82109;1295;3012609;-60
2023/06/17 02:21:42;;;;;;;17.00;6.90;;;;;;;18.84;56.95;98642.23;82189;1295;3011266;-62
2023/06/17 02:24:10;;;;;;;10.80;5.20;;;;;;;18.88;56.82;98639.88;80943;1293;3068153;-62
2023/06/17 02:27:44;;;;;;;15.80;5.50;;;;;;;18.81;57.19;98636.43;79914;1299;3013713;-60
2023/06/17 02:30:11;;;;;;;14.40;5.40;;;;;;;18.80;57.27;98635.33;79012;1303;3013516;-61
2023/06/17 02:32:39;;;;;;;10.30;4.30;;;;;;;18.87;57.12;98635.52;79134;1302;3011978;-60
2023/06/17 02:35:08;;;;;;;7.10;4.00;;;;;;;18.77;57.54;98633.48;77881;1305;3053057;-63
2023/06/17 02:37:36;;;;;;;10.30;4.00;;;;;;;18.61;58.60;98636.28;79038;1301;3013516;-62
2023/06/17 02:40:08;;;;;;;8.90;4.10;;;;;;;18.63;58.21;98636.50;77312;1305;3040001;-61
2023/06/17 02:42:37;;;;;;;8.20;4.30;;;;;;;18.64;58.08;98637.66;78115;1298;3048939;-62
2023/06/17 02:45:04;;;;;;;8.40;4.60;;;;;;;18.60;58.11;98636.40;79488;1299;3012905;-61
2023/06/17 02:47:31;;;;;;;8.50;4.60;;;;;;;18.55;58.22;98638.19;79233;1299;3011913;-61
2023/06/17 02:49:59;;;;;;;7.30;4.60;;;;;;;18.44;58.79;98640.90;78112;1298;3053650;-59
2023/06/17 02:52:25;;;;;;;11.00;4.70;;;;;;;18.46;58.77;98639.56;79441;1298;3013539;-60
2023/06/17 02:54:52;;;;;;;12.50;4.70;;;;;;;18.49;58.72;98647.84;79152;1295;3012716;-61
2023/06/17 02:57:22;;;;;;;10.20;4.50;;;;;;;18.41;58.93;98643.58;78177;1298;3049390;-61
2023/06/17 02:59:49;;;;;;;8.20;4.40;;;;;;;18.49;58.66;98646.66;79392;1298;3013790;-62
2023/06/17 03:02:15;;;;;;;10.50;4.60;;;;;;;18.51;58.57;98642.57;79267;1295;3011523;-61
2023/06/17 03:04:43;;;;;;;7.50;4.40;;;;;;;18.53;58.55;98641.38;78145;1298;3026603;-61
2023/06/17 03:07:11;;;;;;;10.20;5.50;;;;;;;18.57;58.21;98644.37;79432;1298;3021240;-64
2023/06/17 03:09:38;;;;;;;9.50;5.00;;;;;;;18.58;58.41;98646.52;79266;1295;3013326;-62
2023/06/17 03:12:06;;;;;;;7.10;4.50;;;;;;;18.66;58.14;98644.44;78209;1296;3049617;-60
2023/06/17 03:14:35;;;;;;;8.60;4.40;;;;;;;18.71;58.17;98645.84;79441;1295;3013832;-61
2023/06/17 03:17:05;;;;;;;16.70;5.10;;;;;;;18.71;57.93;98645.69;78084;1301;3053144;-61
2023/06/17 03:19:33;;;;;;;8.20;4.40;;;;;;;18.76;57.93;98645.50;79391;1300;3014809;-60
2023/06/17 03:22:00;;;;;;;7.80;4.10;;;;;;;18.81;57.63;98646.05;79418;1295;3011936;-59
2023/06/17 03:24:29;;;;;;;11.70;5.00;;;;;;;18.86;57.47;98648.84;78118;1298;3057320;-61
2023/06/17 03:26:55;;;;;;;10.00;5.20;;;;;;;18.85;57.59;98650.21;79386;1295;3012897;-61
2023/06/17 03:29:23;;;;;;;14.50;5.30;;;;;;;18.85;57.84;98643.82;79371;1299;3011413;-62
2023/06/17 03:31:56;;;;;;;9.30;5.20;;;;;;;18.88;57.67;98644.63;78249;1298;3053610;-60
2023/06/17 03:34:24;;;;;;;9.20;5.40;;;;;;;18.93;57.51;98644.58;79462;1298;3013601;-59
2023/06/17 03:36:56;;;;;;;10.10;5.40;;;;;;;18.96;57.50;98648.01;78119;1296;3069795;-63
2023/06/17 03:39:23;;;;;;;9.80;5.50;;;;;;;19.00;57.49;98647.27;79268;1295;3013364;-61
2023/06/17 03:41:49;;;;;;;13.00;6.50;;;;;;;19.08;57.32;98651.52;79402;1296;3011937;-61
2023/06/17 03:44:18;;;;;;;11.60;6.50;;;;;;;19.11;57.39;98655.95;77989;1295;3053218;-61
2023/06/17 03:46:44;;;;;;;13.40;6.70;;;;;;;19.14;57.27;98659.45;79230;1300;3013192;-61
2023/06/17 03:49:11;;;;;;;15.50;6.10;;;;;;;19.17;57.33;98659.94;79395;1300;3013191;-63
2023/06/17 03:51:40;;;;;;;15.40;6.30;;;;;;;19.19;57.18;98659.70;78199;1299;3026620;-60
2023/06/17 03:54:07;;;;;;;9.20;6.10;;;;;;;19.25;57.03;98657.98;79366;1296;3013286;-60
2023/06/17 03:56:39;;;;;;;10.90;7.10;;;;;;;19.29;57.06;98658.02;78834;1295;3013060;-59
2023/06/17 03:59:05;;;;;;;12.10;6.80;;;;;;;19.37;56.86;98659.21;79373;1295;3014928;-62
2023/06/17 04:01:33;;;;;;;15.40;8.10;;;;;;;19.41;56.95;98657.10;79217;1301;3011645;-62
2023/06/17 04:04:01;;;;;;;18.50;7.90;;;;;;;19.33;57.01;98656.02;78331;1302;3052524;-60
2023/06/17 04:06:27;;;;;;;16.00;7.70;;;;;;;19.32;56.92;98656.67;79460;1298;3013281;-61
2023/06/17 04:08:54;;;;;;;15.20;8.00;;;;;;;19.41;56.74;98655.17;79438;1295;3011931;-63
2023/06/17 04:11:22;;;;;;;15.10;8.10;;;;;;;19.48;56.66;98651.98;78193;1298;3028597;-62
2023/06/17 04:13:49;;;;;;;12.90;7.30;;;;;;;19.54;56.40;98656.04;79449;1296;3013523;-61
2023/06/17 04:16:16;;;;;;;16.00;7.60;;;;;;;19.54;56.34;98661.35;79261;1296;3011545;-60
2023/06/17 04:18:45;;;;;;;16.20;7.90;;;;;;;19.51;56.33;98659.65;78096;1301;3026300;-58
2023/06/17 04:21:12;;;;;;;11.10;7.20;;;;;;;19.58;56.20;98659.20;79428;1298;3013082;-61
2023/06/17 04:23:39;;;;;;;8.50;5.80;;;;;;;19.65;55.89;98654.17;79447;1295;3013150;-61
2023/06/17 04:26:07;;;;;;;9.20;6.30;;;;;;;19.75;55.52;98656.05;78275;1298;3056571;-60
2023/06/17 04:28:34;;;;;;;9.40;6.10;;;;;;;19.83;55.37;98659.23;79478;1296;3014711;-60
2023/06/17 04:31:02;;;;;;;9.00;5.80;;;;;;;19.89;55.55;98662.85;79409;1295;3011710;-59
2023/06/17 04:33:32;;;;;;;12.30;6.30;;;;;;;19.98;55.38;98670.27;78263;1298;3053520;-62
2023/06/17 04:36:08;;;;;;;11.60;6.50;;;;;;;20.07;54.58;98668.48;79472;1298;3011630;-61
2023/06/17 04:38:37;;;;;;;11.40;6.30;;;;;;;20.09;54.61;98671.66;78171;1298;3068953;-62
2023/06/17 04:41:05;;;;;;;12.70;6.90;;;;;;;20.16;54.57;98674.56;79393;1297;3013081;-63
2023/06/17 04:43:33;;;;;;;19.20;6.70;;;;;;;20.22;54.43;98670.33;79282;1294;3011941;-61
2023/06/17 04:46:01;;;;;;;13.50;6.80;;;;;;;20.29;54.14;98675.79;78134;1295;3052731;-60
2023/06/17 04:48:30;;;;;;;17.30;6.90;;;;;;;20.33;54.76;98672.30;79458;1295;3013448;-61
2023/06/17 04:50:59;;;;;;;14.00;6.70;;;;;;;20.37;54.71;98666.91;78917;1295;3012221;-60
2023/06/17 04:53:26;;;;;;;13.70;6.80;;;;;;;20.40;54.61;98665.93;79463;1295;3019108;-60
2023/06/17 04:55:53;;;;;;;13.20;7.60;;;;;;;20.47;54.62;98665.92;79403;1298;3011736;-62
2023/06/17 04:58:21;;;;;;;14.70;7.40;;;;;;;20.55;54.51;98669.27;78193;1298;3027887;-61
2023/06/17 05:00:51;;;;;;;14.60;7.40;;;;;;;20.64;54.52;98671.82;79304;1295;3011616;-61
2023/06/17 05:03:23;;;;;;;11.20;6.20;;;;;;;20.70;54.67;98667.73;78244;1298;3052776;-60
2023/06/17 05:05:53;;;;;;;14.20;6.20;;;;;;;20.75;54.56;98671.30;79494;1298;3013931;-59
2023/06/17 05:08:22;;;;;;;11.40;6.50;;;;;;;20.83;54.51;98675.55;78941;1295;3011903;-60
2023/06/17 05:10:50;;;;;;;13.00;6.50;;;;;;;20.88;54.54;98678.91;79483;1298;3013527;-61
2023/06/17 05:13:17;;;;;;;15.40;6.20;;;;;;;20.98;54.29;98683.00;79333;1296;3011837;-62
2023/06/17 05:15:45;;;;;;;16.60;6.90;;;;;;;21.05;54.41;98682.45;78000;1300;3055815;-61
2023/06/17 05:18:12;;;;;;;14.60;5.90;;;;;;;21.09;54.50;98688.89;79420;1296;3012391;-63
2023/06/17 05:20:40;;;;;;;10.50;5.40;;;;;;;21.12;54.48;98688.83;79458;1296;3012923;-62
2023/06/17 05:23:08;;;;;;;11.70;5.40;;;;;;;21.19;54.66;98688.11;78019;1300;3053400;-61
2023/06/17 05:25:35;;;;;;;9.40;5.90;;;;;;;21.22;54.91;98686.64;79471;1298;3011764;-61
2023/06/17 05:28:05;;;;;;;11.30;5.50;;;;;;;21.36;54.85;98684.48;79465;1298;3013049;-62
2023/06/17 05:30:35;;;;;;;12.20;5.60;;;;;;;21.44;54.93;98684.89;78110;1298;3056468;-59
2023/06/17 05:33:04;;;;;;;9.80;5.60;;;;;;;21.53;55.06;98683.41;79444;1295;3011880;-62
2023/06/17 05:35:33;;;;;;;11.90;4.90;;;;;;;21.64;54.85;98689.02;78198;1298;3026753;-62
2023/06/17 05:38:00;;;;;;;12.50;4.90;;;;;;;21.73;54.49;98688.70;79472;1295;3013248;-61
2023/06/17 05:40:26;;;;;;;7.70;4.20;;;;;;;21.78;54.66;98683.30;79521;1298;3011816;-61
2023/06/17 05:42:55;;;;;;;8.20;4.50;;;;;;;21.91;54.27;98685.66;78251;1298;3068757;-60
2023/06/17 05:45:21;;;;;;;6.90;4.30;;;;;;;22.00;54.17;98676.48;79474;1298;3014215;-61
2023/06/17 05:47:49;;;;;;;10.40;4.90;;;;;;;22.03;54.23;98672.96;79453;1294;3011861;-62
2023/06/17 05:50:17;;;;;;;13.20;5.30;;;;;;;22.07;54.18;98677.55;78284;1298;3053832;-60
2023/06/17 05:52:45;;;;;;;11.70;5.60;;;;;;;22.18;53.73;98674.35;79422;1300;3013164;-61
2023/06/17 05:55:12;;;;;;;17.10;6.00;;;;;;;22.23;53.82;98673.18;79505;1295;3012017;-61
2023/06/17 05:57:40;;;;;;;16.70;6.70;;;;;;;22.24;53.85;98671.30;78259;1295;3069306;-60
2023/06/17 06:00:08;;;;;;;13.80;5.60;;;;;;;22.17;53.90;98675.45;79352;1298;3013733;-60
2023/06/17 06:02:42;;;;;;;12.40;5.70;;;;;;;22.27;53.87;98673.40;78212;1295;3048592;-61
2023/06/17 06:05:09;;;;;;;8.40;4.70;;;;;;;22.33;53.94;98674.20;79562;1295;3015175;-61
2023/06/17 06:07:41;;;;;;;12.10;4.20;;;;;;;22.45;53.59;98674.52;78223;1298;3050507;-61
2023/06/17 06:10:08;;;;;;;10.10;4.30;;;;;;;22.50;53.42;98678.70;79370;1301;3013924;-61
2023/06/17 06:12:39;;;;;;;11.00;4.60;;;;;;;22.52;53.42;98685.77;78927;1295;3011440;-62
2023/06/17 06:15:06;;;;;;;6.30;4.40;;;;;;;22.58;53.39;98689.08;79401;1294;3013292;-60
2023/06/17 06:17:33;;;;;;;10.20;4.50;;;;;;;22.69;53.07;98685.14;79501;1294;3011592;-61
2023/06/17 06:20:01;;;;;;;14.30;4.70;;;;;;;22.73;52.71;98682.39;78078;1299;3053580;-60
2023/06/17 06:22:29;;;;;;;7.40;4.50;;;;;;;22.73;53.07;98679.39;79265;1301;3013876;-60
2023/06/17 06:24:56;;;;;;;8.30;4.70;;;;;;;22.82;53.00;98677.24;79294;1301;3011564;-62
2023/06/17 06:27:24;;;;;;;9.90;4.80;;;;;;;22.90;52.95;98677.48;78091;1296;3069765;-62
2023/06/17 06:29:51;;;;;;;12.10;4.90;;;;;;;23.01;52.52;98671.48;79239;1295;3018484;-62
2023/06/17 06:32:18;;;;;;;7.40;5.30;;;;;;;23.04;52.36;98668.45;79217;1300;3012971;-62
2023/06/17 06:34:46;;;;;;;7.10;4.30;;;;;;;22.94;52.89;98671.88;78118;1296;3026496;-62
2023/06/17 06:37:15;;;;;;;8.60;4.20;;;;;;;22.97;52.99;98673.41;79415;1295;3012882;-63
2023/06/17 06:39:42;;;;;;;9.40;4.50;;;;;;;22.99;53.18;98668.05;79282;1295;3011702;-62
2023/06/17 06:42:11;;;;;;;11.20;4.00;;;;;;;22.97;53.40;98673.60;78097;1300;3068411;-60
2023/06/17 06:44:52;;;;;;;8.20;4.20;;;;;;;23.04;53.45;98673.84;78042;1295;3051624;-59
2023/06/17 06:47:20;;;;;;;12.30;4.70;;;;;;;23.13;53.39;98671.06;79335;1295;3014709;-62
2023/06/17 06:49:47;;;;;;;11.50;4.30;;;;;;;23.26;53.42;98672.58;79282;1295;3011599;-62
2023/06/17 06:52:15;;;;;;;9.90;5.50;;;;;;;23.46;52.95;98672.55;78235;1299;3049311;-63
2023/06/17 06:54:43;;;;;;;7.80;4.90;;;;;;;23.53;51.92;98670.04;79259;1301;3013998;-62
2023/06/17 06:57:09;;;;;;;10.30;4.90;;;;;;;23.67;51.14;98663.23;79304;1300;3011690;-60
2023/06/17 06:59:37;;;;;;;9.70;5.60;;;;;;;23.83;50.50;98662.38;78085;1300;3050910;-63
2023/06/17 07:02:05;;;;;;;11.50;5.20;;;;;;;23.92;50.01;98659.35;79454;1299;3013681;-60
2023/06/17 07:04:31;;;;;;;9.40;5.30;;;;;;;23.92;49.22;98659.63;79239;1295;3011769;-61
2023/06/17 07:07:01;;;;;;;9.50;5.90;;;;;;;23.86;48.66;98658.98;78094;1301;3050473;-63
2023/06/17 07:09:31;;;;;;;15.60;5.70;;;;;;;23.84;48.66;98665.89;79276;1296;3011676;-62
2023/06/17 07:11:59;;;;;;;10.80;5.90;;;;;;;23.83;48.52;98666.16;77994;1301;3053236;-62
2023/06/17 07:14:26;;;;;;;9.00;5.00;;;;;;;23.94;48.70;98664.46;79259;1295;3013628;-62
2023/06/17 07:16:52;;;;;;;13.20;5.40;;;;;;;24.07;48.69;98660.07;79270;1300;3011694;-63
2023/06/17 07:19:21;;;;;;;9.10;4.90;;;;;;;24.15;48.56;98660.32;78047;1297;3028379;-62
2023/06/17 07:21:48;;;;;;;12.70;5.00;;;;;;;24.23;48.17;98657.86;79190;1299;3019208;-60
2023/06/17 07:24:16;;;;;;;8.20;4.10;;;;;;;24.27;47.94;98654.82;79249;1302;3011779;-61
2023/06/17 07:26:45;;;;;;;5.30;3.90;;;;;;;24.31;47.85;98653.35;77973;1301;3051357;-62
2023/06/17 07:29:11;;;;;;;12.30;4.20;;;;;;;24.36;47.79;98652.04;79314;1301;3013436;-62
2023/06/17 07:31:38;;;;;;;8.60;4.60;;;;;;;24.38;47.62;98649.45;79198;1297;3011843;-60
2023/06/17 07:34:06;;;;;;;6.10;3.80;;;;;;;24.46;47.76;98646.23;78130;1297;3050876;-61
2023/06/17 07:36:33;;;;;;;5.60;3.50;;;;;;;24.58;47.38;98647.51;79226;1298;3013094;-62
2023/06/17 07:38:59;;;;;;;9.10;4.30;;;;;;;24.64;46.82;98651.58;79211;1301;3013862;-62
2023/06/17 07:41:27;;;;;;;7.90;3.30;;;;;;;24.75;46.81;98650.16;78078;1301;3026658;-61
2023/06/17 07:43:54;;;;;;;8.80;3.50;;;;;;;24.73;45.82;98653.06;79372;1298;3013387;-62
2023/06/17 07:46:21;;;;;;;8.10;3.40;;;;;;;24.83;45.35;98652.27;79163;1301;3012012;-62
2023/06/17 07:48:48;;;;;;;4.50;3.40;;;;;;;24.91;44.92;98654.93;77997;1301;3028417;-63
2023/06/17 07:51:15;;;;;;;10.00;4.00;;;;;;;24.93;44.95;98658.69;79399;1297;3013460;-62
2023/06/17 07:53:41;;;;;;;6.90;3.40;;;;;;;24.95;45.41;98658.77;79222;1301;3011723;-62
2023/06/17 07:56:10;;;;;;;6.70;3.70;;;;;;;25.04;45.41;98669.60;78041;1301;3027997;-61
2023/06/17 07:58:36;;;;;;;7.60;3.40;;;;;;;25.09;45.07;98662.20;79214;1301;3013553;-63
2023/06/17 08:01:03;;;;;;;8.00;3.50;;;;;;;25.05;44.80;98664.36;79175;1297;3011834;-63
2023/06/17 08:03:31;;;;;;;8.00;3.50;;;;;;;25.11;45.14;98663.73;78059;1301;3027754;-63
2023/06/17 08:05:58;;;;;;;6.60;3.90;;;;;;;25.01;45.68;98658.81;79279;1298;3013963;-63
2023/06/17 08:08:25;;;;;;;10.00;3.90;;;;;;;25.13;45.83;98661.70;79228;1301;3012792;-63
2023/06/17 08:10:53;;;;;;;8.20;3.50;;;;;;;25.16;45.18;98660.05;78073;1301;3029518;-62
2023/06/17 08:13:20;;;;;;;8.10;4.10;;;;;;;25.20;44.99;98654.71;79294;1301;3013348;-63
2023/06/17 08:15:49;;;;;;;6.30;3.50;;;;;;;25.36;45.03;98655.22;79233;1298;3011707;-61
2023/06/17 08:18:17;;;;;;;6.10;4.10;;;;;;;25.45;45.22;98656.38;78050;1301;3049299;-62
2023/06/17 08:20:44;;;;;;;7.30;3.20;;;;;;;25.53;45.29;98655.94;79290;1301;3018415;-61
2023/06/17 08:23:11;;;;;;;6.60;3.60;;;;;;;25.66;45.13;98657.61;79268;1300;3011658;-62
2023/06/17 08:25:40;;;;;;;5.90;4.00;;;;;;;25.69;44.77;98656.65;78042;1301;3029159;-63
2023/06/17 08:28:07;;;;;;;6.20;3.60;;;;;;;25.69;45.04;98656.91;79271;1301;3012909;-63
2023/06/17 08:30:34;;;;;;;10.30;3.60;;;;;;;25.82;45.02;98660.09;79273;1301;3012002;-62
2023/06/17 08:33:02;;;;;;;7.80;4.00;;;;;;;25.97;44.74;98656.48;77975;1311;3048801;-62
2023/06/17 08:35:29;;;;;;;8.20;3.60;;;;;;;26.10;44.36;98658.43;79286;1298;3019639;-63
2023/06/17 08:37:56;;;;;;;8.90;4.00;;;;;;;26.17;44.58;98652.37;79297;1298;3012860;-63
2023/06/17 08:40:23;;;;;;;10.40;4.30;;;;;;;26.18;44.85;98652.28;78004;1301;3026155;-63
2023/06/17 08:43:00;;;;;;;6.30;3.60;;;;;;;26.24;44.93;98644.80;79120;1304;3013343;-63
2023/06/17 08:45:29;;;;;;;10.30;3.50;;;;;;;26.32;44.95;98650.46;77993;1301;3057220;-63
2023/06/17 08:47:57;;;;;;;8.10;3.90;;;;;;;26.38;44.96;98652.10;79336;1297;3013232;-65
2023/06/17 08:50:26;;;;;;;8.70;3.60;;;;;;;26.40;44.87;98647.12;79228;1297;3011656;-63
2023/06/17 08:52:54;;;;;;;8.40;3.70;;;;;;;26.56;44.68;98646.59;78042;1301;3052446;-60
2023/06/17 08:55:21;;;;;;;5.30;3.00;;;;;;;26.64;44.16;98642.48;79165;1302;3013404;-61
2023/06/17 08:57:50;;;;;;;7.50;3.40;;;;;;;26.80;44.26;98650.54;79183;1301;3011861;-62
2023/06/17 09:00:18;;;;;;;7.70;3.50;;;;;;;26.87;44.06;98649.52;77994;1301;3057380;-60
2023/06/17 09:02:45;;;;;;;8.40;2.70;;;;;;;26.73;44.36;98644.48;79311;1298;3013600;-61
2023/06/17 09:05:12;;;;;;;8.40;3.50;;;;;;;26.84;43.10;98639.22;79234;1298;3011637;-61
2023/06/17 09:07:41;;;;;;;5.60;3.40;;;;;;;26.96;42.30;98639.42;77990;1301;3053573;-62
2023/06/17 09:10:09;;;;;;;7.30;3.20;;;;;;;27.00;41.94;98643.45;79231;1301;3012997;-63
2023/06/17 09:12:37;;;;;;;4.80;2.80;;;;;;;27.08;42.16;98643.74;79227;1298;3011652;-62
2023/06/17 09:15:15;;;;;;;8.60;3.00;;;;;;;27.23;41.78;98643.98;78076;1301;3056876;-63
2023/06/17 09:17:44;;;;;;;7.40;3.10;;;;;;;27.38;41.60;98642.00;78091;1301;3049837;-62
2023/06/17 09:20:13;;;;;;;5.20;3.00;;;;;;;27.39;41.15;98641.21;79252;1297;3012875;-62
2023/06/17 09:22:42;;;;;;;12.00;3.40;;;;;;;27.34;41.03;98639.50;78036;1301;3026419;-62
2023/06/17 09:25:14;;;;;;;4.30;2.60;;;;;;;27.39;40.29;98640.52;79248;1301;3013115;-62
2023/06/17 09:27:54;;;;;;;7.20;2.80;;;;;;;27.46;39.96;98639.40;78074;1301;3068711;-62
2023/06/17 09:30:22;;;;;;;4.30;2.70;;;;;;;27.58;39.94;98633.50;77946;1298;3049833;-61
2023/06/17 09:32:51;;;;;;;8.00;2.70;;;;;;;27.69;39.09;98642.27;79206;1297;3013324;-61
2023/06/17 09:35:18;;;;;;;6.50;2.90;;;;;;;27.69;38.92;98635.48;79287;1298;3013439;-63
2023/06/17 09:37:52;;;;;;;9.10;3.30;;;;;;;27.57;38.59;98641.99;77977;1301;3050862;-62
2023/06/17 09:40:20;;;;;;;4.30;2.90;;;;;;;27.69;38.94;98643.80;79219;1299;3011845;-62
2023/06/17 09:42:50;;;;;;;7.30;2.50;;;;;;;27.91;38.16;98638.28;78042;1298;3051158;-62
2023/06/17 09:45:24;;;;;;;8.20;2.60;;;;;;;28.02;37.71;98636.98;79213;1298;3011466;-63
2023/06/17 09:47:56;;;;;;;3.60;2.50;;;;;;;28.12;38.03;98635.02;78026;1301;3051775;-62
2023/06/17 09:50:25;;;;;;;7.20;3.20;;;;;;;28.25;37.69;98634.59;79215;1297;3011579;-61
2023/06/17 09:52:55;;;;;;;5.00;2.80;;;;;;;28.37;37.28;98631.61;78017;1301;3048909;-62
2023/06/17 09:55:23;;;;;;;9.00;3.20;;;;;;;28.47;36.85;98632.01;79261;1299;3011752;-62
2023/06/17 09:57:53;;;;;;;4.10;2.90;;;;;;;28.58;36.53;98628.35;79223;1298;3011546;-62
2023/06/17 10:00:23;;;;;;;8.80;3.60;;;;;;;28.48;37.20;98630.45;78075;1301;3053150;-63
2023/06/17 10:02:51;;;;;;;7.80;2.90;;;;;;;28.59;36.80;98625.71;79192;1301;3012409;-63
2023/06/17 10:05:23;;;;;;;6.60;3.00;;;;;;;28.61;36.99;98627.02;78030;1301;3025884;-62
2023/06/17 10:07:53;;;;;;;6.70;3.00;;;;;;;28.66;36.75;98623.25;79194;1301;3011801;-62
2023/06/17 10:10:23;;;;;;;5.30;2.90;;;;;;;28.71;36.26;98621.70;77971;1301;3049648;-62
2023/06/17 10:12:50;;;;;;;5.10;2.70;;;;;;;28.75;36.32;98615.07;79279;1299;3021295;-62
2023/06/17 10:15:17;;;;;;;5.80;3.50;;;;;;;28.93;35.98;98613.55;79208;1304;3011677;-60
2023/06/17 10:17:45;;;;;;;7.50;2.90;;;;;;;28.96;35.75;98611.24;77931;1302;3054093;-63
2023/06/17 10:20:12;;;;;;;6.90;2.80;;;;;;;29.03;35.98;98616.92;79072;1304;3013523;-63
2023/06/17 10:22:39;;;;;;;6.10;3.20;;;;;;;29.17;35.32;98614.09;79149;1304;3013880;-62
2023/06/17 10:25:09;;;;;;;8.20;2.60;;;;;;;29.25;35.21;98619.16;77994;1302;3029609;-64
2023/06/17 10:27:37;;;;;;;7.20;3.00;;;;;;;29.37;34.45;98622.81;79270;1298;3011527;-62
2023/06/17 10:30:22;;;;;;;8.00;2.90;;;;;;;29.45;34.26;98618.88;78639;1298;3012879;-62
2023/06/17 10:33:01;;;;;;;12.40;3.60;;;;;;;29.54;34.03;98618.79;78081;1295;3053373;-63
2023/06/17 10:35:37;;;;;;;4.30;3.20;;;;;;;29.53;34.20;98618.40;78074;1296;3054240;-62
2023/06/17 10:38:07;;;;;;;7.50;3.20;;;;;;;29.48;34.45;98614.34;78093;1296;3069358;-62
2023/06/17 10:40:36;;;;;;;7.20;3.10;;;;;;;29.59;34.40;98616.73;79258;1295;3011787;-62
2023/06/17 10:43:04;;;;;;;4.30;3.00;;;;;;;29.69;34.48;98613.30;78074;1303;3026607;-62
2023/06/17 10:45:32;;;;;;;6.50;3.20;;;;;;;29.79;34.16;98607.14;79370;1295;3013538;-62
2023/06/17 10:48:15;;;;;;;5.50;3.10;;;;;;;29.95;33.59;98600.86;79321;1300;3011610;-62
2023/06/17 10:50:46;;;;;;;4.80;3.10;;;;;;;30.00;33.26;98604.27;78133;1300;3052139;-63
2023/06/17 10:53:16;;;;;;;4.70;2.90;;;;;;;30.05;32.70;98602.19;79246;1300;3011726;-61
2023/06/17 10:55:45;;;;;;;8.60;3.50;;;;;;;29.99;32.93;98599.48;78013;1295;3066593;-62
2023/06/17 10:58:11;;;;;;;5.00;3.10;;;;;;;30.07;33.05;98597.68;79225;1295;3013145;-63
2023/06/17 11:00:38;;;;;;;9.00;3.40;;;;;;;30.10;32.98;98592.92;79309;1295;3011653;-62
2023/06/17 11:03:08;;;;;;;4.60;2.60;;;;;;;30.32;32.73;98594.55;78082;1295;3052560;-61
2023/06/17 11:05:35;;;;;;;8.40;3.20;;;;;;;30.48;32.34;98597.08;79274;1297;3013000;-62
2023/06/17 11:08:05;;;;;;;9.60;3.60;;;;;;;30.55;32.06;98597.11;78753;1300;3011647;-62
2023/06/17 11:10:32;;;;;;;7.40;3.20;;;;;;;30.58;32.16;98594.92;79248;1301;3012875;-61
2023/06/17 11:12:59;;;;;;;6.50;3.20;;;;;;;30.66;32.50;98592.79;79298;1299;3011518;-63
2023/06/17 11:15:28;;;;;;;5.70;3.10;;;;;;;30.70;32.63;98593.46;77996;1301;3028397;-63
2023/06/17 11:18:02;;;;;;;3.70;3.10;;;;;;;30.72;32.87;98590.62;79250;1295;3012963;-61
2023/06/17 11:20:30;;;;;;;4.90;3.20;;;;;;;30.92;32.52;98585.83;78026;1301;3054507;-62